Grand Marais, MN (55604)

3:58 PM CST on January 19, 2017 (GMT -0600)
SundewTech | | Change Station
Active Advisory: Special Statement

Elev 676 ft 47.75 °N, 90.34 °W | Updated 8 seconds ago

Mostly Cloudy
Mostly Cloudy
37.5 °F
Feels Like 38 °F
N
0.0
Wind Variable Wind from WSW

Today
High -- | Low -- °F
--% Chance of Precip.
Yesterday
High -- | Low -- °F
Precip. -- in
Pressure 29.72 in
Visibility 0.2 miles
Clouds Overcast 200 ft
Windchill 38 °F
Dew Point 35 °F
Humidity 93%
Rainfall 0.00 in
Snow Depth Not available.
7:42 AM 4:42 PM
Waning Gibbous, 50% visible
METAR KCKC 192154Z AUTO 21003KT M1/4SM FG OVC002 00/M02 A2972 RMK AO2 P0002
Pressure 29.72 in
Visibility 0.2 miles
Clouds Overcast 200 ft
Windchill 38 °F
Dew Point 35 °F
Humidity 93%
Rainfall 0.00 in
Snow Depth Not available.
7:42 AM 4:42 PM
Waning Gibbous, 50% visible
METAR KCKC 192154Z AUTO 21003KT M1/4SM FG OVC002 00/M02 A2972 RMK AO2 P0002

Get Your Daily Forecast Email!

Thanks for signing up!

Be on the lookout for a verification email in your inbox.

You'll start receiving the daily forecast at 8 AM.

×

10-Day Weather Forecast

Almanac

Astronomy

Jan. 19, 2017 Rise Set
Actual Time
Civil Twilight
Nautical Twilight
Astronomical Twilight
Moon
Length of Visible Light
Length of Day
Tomorrow will be .
, % of the Moon is Illuminated

Today's Extremes

State Highs State Lows

Community

WunderPhotos

Upload Photos

1,962,540 photos uploaded!

WunderBlog® & News

Nearby

Air Quality

  Air Quality AQ Index Pollutant
Not available.

Snow Depth

Station Depth Elevation

Earthquake Activity

City Distance Mag. Time & Date
Minimum magnitude displayed is 2.5.

Coastal Water Temperatures

Place Temperature

Stations

Nearby Weather Stations

Station Location Temp. Windchill Dew Point Humidity Wind Precip. Elev Updated Type
                   

Watches & Warnings

Special Statement
Issued: 1:53 PM CST Jan. 19, 2017 – National Weather Service

... Patchy dense fog continues for the Iron Range and North
Shore...

Visibilities are poor in fog this afternoon for areas around
Hibbing and Virginia... as well as along the North Shore north of
Silver Bay through Grand Portage. This fog is patchy in nature
and the visibility may vary greatly in a short distance. The fog
is slowly dissipating and visibilities should gradually improve
through the rest of the afternoon.


Le


153 PM CST Thu Jan 19 2017

... Patchy dense fog continues for the Iron Range and North
Shore...

Visibilities are poor in fog this afternoon for areas around
Hibbing and Virginia... as well as along the North Shore north of
Silver Bay through Grand Portage. This fog is patchy in nature
and the visibility may vary greatly in a short distance. The fog
is slowly dissipating and visibilities should gradually improve
through the rest of the afternoon.


Le